createdAt,value
2023-04-05T00:00:44.357Z,26.27
2023-04-05T00:01:50.142Z,26.41
2023-04-05T00:02:53.060Z,26.30
2023-04-05T00:03:57.717Z,26.29
2023-04-05T00:05:01.034Z,26.31
2023-04-05T00:06:05.302Z,26.29
2023-04-05T00:07:08.283Z,26.40
2023-04-05T00:08:13.626Z,26.20
2023-04-05T00:09:15.505Z,26.23
2023-04-05T00:10:17.802Z,26.10
2023-04-05T00:11:19.625Z,26.10
2023-04-05T00:12:21.624Z,26.32
2023-04-05T00:13:23.773Z,26.26
2023-04-05T00:14:25.906Z,26.21
2023-04-05T00:15:28.302Z,26.56
2023-04-05T00:16:30.854Z,26.39
2023-04-05T00:17:33.460Z,26.44
2023-04-05T00:18:38.755Z,26.44
2023-04-05T00:19:40.904Z,26.33
2023-04-05T00:20:42.938Z,26.53
2023-04-05T00:21:45.106Z,26.62
2023-04-05T00:22:46.951Z,26.49
2023-04-05T00:23:55.402Z,26.63
2023-04-05T00:24:57.198Z,26.32
2023-04-05T00:25:58.972Z,26.33
2023-04-05T00:27:01.291Z,26.40
2023-04-05T00:28:05.883Z,26.30
2023-04-05T00:29:07.781Z,26.41
2023-04-05T00:30:09.977Z,26.41
2023-04-05T00:31:12.212Z,26.54
2023-04-05T00:32:14.264Z,26.46
2023-04-05T00:33:17.438Z,26.61
2023-04-05T00:34:19.363Z,26.61
2023-04-05T00:35:21.369Z,26.41
2023-04-05T00:36:23.555Z,26.62
2023-04-05T00:37:25.572Z,26.41
2023-04-05T00:38:27.547Z,26.36
2023-04-05T00:39:29.497Z,26.51
2023-04-05T00:40:31.497Z,26.54
2023-04-05T00:41:33.357Z,26.71
2023-04-05T00:42:35.253Z,26.82
2023-04-05T00:43:37.346Z,26.69
2023-04-05T00:44:39.214Z,26.51
2023-04-05T00:45:42.377Z,26.61
2023-04-05T00:46:44.207Z,26.49
2023-04-05T00:47:46.613Z,26.54
2023-04-05T00:48:49.057Z,26.51
2023-04-05T00:49:51.297Z,26.51
2023-04-05T00:50:53.592Z,26.72
2023-04-05T00:51:57.767Z,26.61
2023-04-05T00:53:00.040Z,26.78
2023-04-05T00:54:03.035Z,26.61
2023-04-05T00:55:07.362Z,26.48
2023-04-05T00:56:10.351Z,26.44
2023-04-05T00:57:13.020Z,26.59
2023-04-05T00:58:21.504Z,26.51
2023-04-05T00:59:23.652Z,26.57
2023-04-05T01:00:27.305Z,26.56
2023-04-05T01:01:29.391Z,26.38
2023-04-05T01:02:34.502Z,26.58
2023-04-05T01:03:41.196Z,26.61
2023-04-05T01:04:51.146Z,26.50
2023-04-05T01:06:10.166Z,26.56
2023-04-05T01:07:28.959Z,26.36
2023-04-05T01:08:55.954Z,26.14
2023-04-05T01:10:00.448Z,26.48
2023-04-05T01:11:06.965Z,26.76
2023-04-05T01:12:17.260Z,26.76
2023-04-05T01:13:19.304Z,26.41
2023-04-05T01:14:21.122Z,26.63
2023-04-05T01:15:23.013Z,26.79
2023-04-05T01:16:25.081Z,26.50
2023-04-05T01:17:30.821Z,26.74
2023-04-05T01:18:36.426Z,26.66
2023-04-05T01:19:42.313Z,26.44
2023-04-05T01:21:20.914Z,26.61
2023-04-05T01:23:06.769Z,26.60
2023-04-05T01:24:39.185Z,26.50
2023-04-05T01:26:21.386Z,26.63
2023-04-05T01:27:50.596Z,26.72
2023-04-05T01:29:25.165Z,26.49
2023-04-05T01:30:58.175Z,26.39
2023-04-05T01:32:20.402Z,26.54
2023-04-05T01:33:40.646Z,26.39
2023-04-05T01:34:56.403Z,26.62
2023-04-05T01:36:48.614Z,26.62
2023-04-05T01:37:59.709Z,26.40
2023-04-05T01:39:05.211Z,26.83
2023-04-05T01:40:08.714Z,26.65
2023-04-05T01:41:11.238Z,26.83
2023-04-05T01:42:14.001Z,26.52
2023-04-05T01:43:17.978Z,26.77
2023-04-05T01:44:20.122Z,26.92
2023-04-05T01:45:22.006Z,26.62
2023-04-05T01:46:24.677Z,26.60
2023-04-05T01:47:26.622Z,26.98
2023-04-05T01:48:28.766Z,27.03
2023-04-05T01:49:31.008Z,27.06
2023-04-05T01:50:32.956Z,26.69
2023-04-05T01:51:34.890Z,26.76
2023-04-05T01:52:36.776Z,26.86
2023-04-05T01:53:38.602Z,26.88
2023-04-05T01:54:40.496Z,26.96
2023-04-05T01:55:42.266Z,26.91
2023-04-05T01:56:46.047Z,26.88
2023-04-05T01:57:50.294Z,26.70
2023-04-05T01:58:52.141Z,27.04
2023-04-05T01:59:54.211Z,26.62
2023-04-05T02:00:56.929Z,27.01
2023-04-05T02:01:58.772Z,26.92
2023-04-05T02:03:01.870Z,27.01
2023-04-05T02:04:03.769Z,26.69
2023-04-05T02:05:06.438Z,26.68
2023-04-05T02:06:08.662Z,27.11
2023-04-05T02:07:10.972Z,26.66
2023-04-05T02:08:14.257Z,26.96
2023-04-05T02:09:16.462Z,26.83
2023-04-05T02:10:19.990Z,26.73
2023-04-05T02:11:22.125Z,26.78
2023-04-05T02:12:24.007Z,26.81
2023-04-05T02:13:26.195Z,27.12
2023-04-05T02:14:28.428Z,26.80
2023-04-05T02:15:30.269Z,26.81
2023-04-05T02:16:35.080Z,26.64
2023-04-05T02:17:40.041Z,26.88
2023-04-05T02:18:43.637Z,26.83
2023-04-05T02:19:46.232Z,26.77
2023-04-05T02:20:52.163Z,26.90
2023-04-05T02:21:54.570Z,26.63
2023-04-05T02:22:58.448Z,26.54
2023-04-05T02:24:00.435Z,26.92
2023-04-05T02:25:03.742Z,26.99
2023-04-05T02:26:05.981Z,26.91
2023-04-05T02:27:07.803Z,26.92
2023-04-05T02:28:11.401Z,26.97
2023-04-05T02:29:13.896Z,26.99
2023-04-05T02:30:15.785Z,26.81
2023-04-05T02:31:17.965Z,26.75
2023-04-05T02:32:19.817Z,26.98
2023-04-05T02:33:24.250Z,26.66
2023-04-05T02:34:27.844Z,26.80
2023-04-05T02:35:29.665Z,26.87
2023-04-05T02:36:31.647Z,26.83
2023-04-05T02:37:33.655Z,26.81
2023-04-05T02:38:36.250Z,26.61
2023-04-05T02:39:38.183Z,26.79
2023-04-05T02:40:41.875Z,26.85
2023-04-05T02:41:44.242Z,26.86
2023-04-05T02:42:46.262Z,26.79
2023-04-05T02:43:48.283Z,26.76
2023-04-05T02:44:50.594Z,26.89
2023-04-05T02:45:52.484Z,26.70
2023-04-05T02:46:54.395Z,26.58
2023-04-05T02:47:56.306Z,26.52
2023-04-05T02:48:58.210Z,26.58
2023-04-05T02:50:00.496Z,26.67
2023-04-05T02:51:02.379Z,26.56
2023-04-05T02:52:04.501Z,26.60
2023-04-05T02:53:06.430Z,26.63
2023-04-05T02:54:08.618Z,26.64
2023-04-05T02:55:10.457Z,26.67
2023-04-05T02:56:13.846Z,26.67
2023-04-05T02:57:16.569Z,26.68
2023-04-05T02:58:19.087Z,26.57
2023-04-05T02:59:21.286Z,26.49
2023-04-05T03:00:23.541Z,26.98
2023-04-05T03:01:25.832Z,26.59
2023-04-05T03:02:28.147Z,26.55
2023-04-05T03:03:30.108Z,26.90
2023-04-05T03:04:34.457Z,26.69
2023-04-05T03:05:36.842Z,26.74
2023-04-05T03:06:39.402Z,26.78
2023-04-05T03:07:42.599Z,26.37
2023-04-05T03:08:44.493Z,26.58
2023-04-05T03:09:46.892Z,26.71
2023-04-05T03:10:51.861Z,26.57
2023-04-05T03:11:53.975Z,26.52
2023-04-05T03:12:56.048Z,26.73
2023-04-05T03:13:58.188Z,26.70
2023-04-05T03:15:00.174Z,26.61
2023-04-05T03:16:03.417Z,26.80
2023-04-05T03:17:06.324Z,26.53
2023-04-05T03:18:09.268Z,26.64
2023-04-05T03:19:12.527Z,26.56
2023-04-05T03:20:14.367Z,26.61
2023-04-05T03:21:18.606Z,26.59
2023-04-05T03:22:21.787Z,26.27
2023-04-05T03:23:29.734Z,26.73
2023-04-05T03:24:32.390Z,26.39
2023-04-05T03:25:37.062Z,26.62
2023-04-05T03:26:38.978Z,26.73
2023-04-05T03:27:40.829Z,26.45
2023-04-05T03:28:45.344Z,26.61
2023-04-05T03:29:47.215Z,26.51
2023-04-05T03:30:49.115Z,26.43
2023-04-05T03:31:52.165Z,26.44
2023-04-05T03:32:54.239Z,26.47
2023-04-05T03:33:56.325Z,26.45
2023-04-05T03:34:58.224Z,26.67
2023-04-05T03:36:00.411Z,26.73
2023-04-05T03:37:02.633Z,26.63
2023-04-05T03:38:05.852Z,26.79
2023-04-05T03:39:12.537Z,26.65
2023-04-05T03:40:14.527Z,26.75
2023-04-05T03:41:27.919Z,26.88
2023-04-05T03:42:29.924Z,26.46
2023-04-05T03:43:33.490Z,26.68
2023-04-05T03:44:35.257Z,26.60
2023-04-05T03:45:37.234Z,26.72
2023-04-05T03:46:39.533Z,26.66
2023-04-05T03:47:50.574Z,26.85
2023-04-05T03:48:52.859Z,26.68
2023-04-05T03:49:56.854Z,26.78
2023-04-05T03:50:59.062Z,26.60
2023-04-05T03:52:00.885Z,26.71
2023-04-05T03:53:03.403Z,26.87
2023-04-05T03:54:05.631Z,26.83
2023-04-05T03:55:08.243Z,26.62
2023-04-05T03:56:10.519Z,26.53
2023-04-05T03:57:12.419Z,26.48
2023-04-05T03:58:14.429Z,26.86
2023-04-05T03:59:16.545Z,26.62
2023-04-05T04:00:18.974Z,26.61
2023-04-05T04:01:21.565Z,26.81
2023-04-05T04:02:23.387Z,26.72
2023-04-05T04:03:26.132Z,26.69
2023-04-05T04:04:28.337Z,26.87
2023-04-05T04:05:31.292Z,26.62
2023-04-05T04:06:33.356Z,26.63
2023-04-05T04:07:35.300Z,26.67
2023-04-05T04:08:37.566Z,26.89
2023-04-05T04:09:39.356Z,26.75
2023-04-05T04:10:41.459Z,26.67
2023-04-05T04:11:43.302Z,26.77
2023-04-05T04:12:46.419Z,26.80
2023-04-05T04:13:48.537Z,26.62
2023-04-05T04:14:50.507Z,26.93
2023-04-05T04:15:52.828Z,26.65
2023-04-05T04:16:54.581Z,26.90
2023-04-05T04:17:56.775Z,26.61
2023-04-05T04:18:58.804Z,26.37
2023-04-05T04:20:01.065Z,26.38
2023-04-05T04:21:07.404Z,26.71
2023-04-05T04:22:10.407Z,26.80
2023-04-05T04:23:14.416Z,26.58
2023-04-05T04:24:19.042Z,26.62
2023-04-05T04:25:21.961Z,26.75
2023-04-05T04:26:28.899Z,26.45
2023-04-05T04:27:32.408Z,26.55
2023-04-05T04:28:39.688Z,26.60
2023-04-05T04:29:46.982Z,26.81
2023-04-05T04:30:49.282Z,26.47
2023-04-05T04:31:51.480Z,26.45
2023-04-05T04:32:54.715Z,26.70
2023-04-05T04:33:56.529Z,26.71
2023-04-05T04:34:59.406Z,26.82
2023-04-05T04:36:09.407Z,26.87
2023-04-05T04:37:18.444Z,26.46
2023-04-05T04:38:20.576Z,26.27
2023-04-05T04:39:26.814Z,26.44
2023-04-05T04:40:39.470Z,26.49
2023-04-05T04:41:47.131Z,26.37
2023-04-05T04:42:49.933Z,26.57
2023-04-05T04:43:54.941Z,26.68
2023-04-05T04:44:58.093Z,26.51
2023-04-05T04:46:00.213Z,26.47
2023-04-05T04:47:02.078Z,26.63
2023-04-05T04:48:05.136Z,26.83
2023-04-05T04:49:07.131Z,26.43
2023-04-05T04:50:10.611Z,26.45
2023-04-05T04:51:12.566Z,26.57
2023-04-05T04:52:14.429Z,26.74
2023-04-05T04:53:20.148Z,26.53
2023-04-05T04:54:23.354Z,26.67
2023-04-05T04:55:26.412Z,26.65
2023-04-05T04:56:28.493Z,26.44
2023-04-05T04:57:30.606Z,26.82
2023-04-05T04:58:32.470Z,26.73
2023-04-05T04:59:34.572Z,26.76
2023-04-05T05:00:41.793Z,26.60
2023-04-05T05:01:46.920Z,26.80
2023-04-05T05:02:51.303Z,26.69
2023-04-05T05:03:53.612Z,26.56
2023-04-05T05:04:55.447Z,27.18
2023-04-05T05:05:57.480Z,26.53
2023-04-05T05:06:59.366Z,26.62
2023-04-05T05:08:01.828Z,26.73
2023-04-05T05:09:03.966Z,26.72
2023-04-05T05:10:07.722Z,26.81
2023-04-05T05:11:10.776Z,26.75
2023-04-05T05:12:12.620Z,26.71
2023-04-05T05:13:14.402Z,26.59
2023-04-05T05:14:16.576Z,26.75
2023-04-05T05:15:19.779Z,26.49
2023-04-05T05:16:23.476Z,26.74
2023-04-05T05:17:26.671Z,26.66
2023-04-05T05:18:28.601Z,26.92
2023-04-05T05:19:31.784Z,26.73
2023-04-05T05:20:33.543Z,26.58
2023-04-05T05:21:36.810Z,26.53
2023-04-05T05:22:39.849Z,26.46
2023-04-05T05:23:41.761Z,26.62
2023-04-05T05:24:45.435Z,26.52
2023-04-05T05:25:48.078Z,26.86
2023-04-05T05:26:50.983Z,26.65
2023-04-05T05:27:52.920Z,26.71
2023-04-05T05:28:54.773Z,26.83
2023-04-05T05:29:56.925Z,26.68
2023-04-05T05:30:58.832Z,26.91
2023-04-05T05:32:00.805Z,27.12
2023-04-05T05:33:02.876Z,26.83
2023-04-05T05:34:04.927Z,27.03
2023-04-05T05:35:08.349Z,27.07
2023-04-05T05:36:10.198Z,26.80
2023-04-05T05:37:13.198Z,26.87
2023-04-05T05:38:15.062Z,26.96
2023-04-05T05:39:16.911Z,26.86
2023-04-05T05:40:19.139Z,27.10
2023-04-05T05:41:23.966Z,27.03
2023-04-05T05:42:27.366Z,27.02
2023-04-05T05:43:29.319Z,27.05
2023-04-05T05:44:31.846Z,27.03
2023-04-05T05:45:34.566Z,26.93
2023-04-05T05:46:36.574Z,27.00
2023-04-05T05:47:38.413Z,26.99
2023-04-05T05:48:42.145Z,26.88
2023-04-05T05:49:43.968Z,27.04
2023-04-05T05:50:48.959Z,26.94
2023-04-05T05:51:52.566Z,26.91
2023-04-05T05:52:54.940Z,26.96
2023-04-05T05:53:56.717Z,27.26
2023-04-05T05:54:58.969Z,26.94
2023-04-05T05:56:01.295Z,27.08
2023-04-05T05:57:03.581Z,26.99
2023-04-05T05:58:05.327Z,27.27
2023-04-05T05:59:07.468Z,27.28
2023-04-05T06:00:10.582Z,27.28
2023-04-05T06:01:12.665Z,27.20
2023-04-05T06:02:15.043Z,27.11
2023-04-05T06:03:17.244Z,26.94
2023-04-05T06:04:21.881Z,27.10
2023-04-05T06:05:23.839Z,27.25
2023-04-05T06:06:26.925Z,26.93
2023-04-05T06:07:28.922Z,26.92
2023-04-05T06:08:30.708Z,26.93
2023-04-05T06:09:35.293Z,26.99
2023-04-05T06:10:38.299Z,27.03
2023-04-05T06:11:53.103Z,26.86
2023-04-05T06:12:57.612Z,26.94
2023-04-05T06:13:59.437Z,26.73
2023-04-05T06:15:02.231Z,26.70
2023-04-05T06:16:04.459Z,26.88
2023-04-05T06:17:07.903Z,27.04
2023-04-05T06:18:10.919Z,26.97
2023-04-05T06:19:12.737Z,27.63
2023-04-05T06:20:16.794Z,26.98
2023-04-05T06:21:18.886Z,27.21
2023-04-05T06:22:21.422Z,27.10
2023-04-05T06:23:23.253Z,27.10
2023-04-05T06:24:26.394Z,27.05
2023-04-05T06:25:28.575Z,27.24
2023-04-05T06:26:31.605Z,27.33
2023-04-05T06:27:33.720Z,26.97
2023-04-05T06:28:35.771Z,27.33
2023-04-05T06:29:37.701Z,27.35
2023-04-05T06:30:39.675Z,27.16
2023-04-05T06:31:42.702Z,27.32
2023-04-05T06:32:44.888Z,27.60
2023-04-05T06:33:48.186Z,27.45
2023-04-05T06:34:50.092Z,27.55
2023-04-05T06:35:52.378Z,27.56
2023-04-05T06:36:55.862Z,27.49
2023-04-05T06:37:57.689Z,27.48
2023-04-05T06:38:59.690Z,27.64
2023-04-05T06:40:01.569Z,27.71
2023-04-05T06:41:04.799Z,27.73
2023-04-05T06:42:06.624Z,27.64
2023-04-05T06:43:13.086Z,28.05
2023-04-05T06:44:14.995Z,28.20
2023-04-05T06:45:19.092Z,27.66
2023-04-05T06:46:21.270Z,27.63
2023-04-05T06:47:23.274Z,27.77
2023-04-05T06:48:25.455Z,28.08
2023-04-05T06:49:28.480Z,27.83
2023-04-05T06:50:31.221Z,28.04
2023-04-05T06:51:33.156Z,28.01
2023-04-05T06:52:35.725Z,27.94
2023-04-05T06:53:38.725Z,28.15
2023-04-05T06:54:40.562Z,28.27
2023-04-05T06:55:48.957Z,28.11
2023-04-05T06:56:53.219Z,27.98
2023-04-05T06:57:55.109Z,27.98
2023-04-05T06:58:59.498Z,28.21
2023-04-05T07:00:01.499Z,27.93
2023-04-05T07:01:03.616Z,28.12
2023-04-05T07:02:06.804Z,28.07
2023-04-05T07:03:09.082Z,28.12
2023-04-05T07:04:12.968Z,28.03
2023-04-05T07:05:15.193Z,28.22
2023-04-05T07:06:17.040Z,27.97
2023-04-05T07:07:19.108Z,27.94
2023-04-05T07:08:21.972Z,27.88
2023-04-05T07:09:25.587Z,27.92
2023-04-05T07:10:29.038Z,27.81
2023-04-05T07:11:33.032Z,27.95
2023-04-05T07:12:35.236Z,27.94
2023-04-05T07:13:37.476Z,27.94
2023-04-05T07:14:39.527Z,27.86
2023-04-05T07:15:41.751Z,27.78
2023-04-05T07:16:43.823Z,28.01
2023-04-05T07:17:47.521Z,27.84
2023-04-05T07:18:49.949Z,27.65
2023-04-05T07:19:51.897Z,27.65
2023-04-05T07:21:00.459Z,27.98
2023-04-05T07:22:02.439Z,27.80
2023-04-05T07:23:06.183Z,27.81
2023-04-05T07:24:08.252Z,27.50
2023-04-05T07:25:10.853Z,27.76
2023-04-05T07:26:12.945Z,27.52
2023-04-05T07:27:16.114Z,27.68
2023-04-05T07:28:17.966Z,27.62
2023-04-05T07:29:19.777Z,27.74
2023-04-05T07:30:22.038Z,27.33
2023-04-05T07:31:24.252Z,27.44
2023-04-05T07:32:26.257Z,27.75
2023-04-05T07:33:28.289Z,27.25
2023-04-05T07:34:30.616Z,27.48
2023-04-05T07:35:32.734Z,27.49
2023-04-05T07:36:37.007Z,27.43
2023-04-05T07:37:39.244Z,27.57
2023-04-05T07:38:41.826Z,27.60
2023-04-05T07:39:43.673Z,27.56
2023-04-05T07:40:45.475Z,27.56
2023-04-05T07:41:47.339Z,27.47
2023-04-05T07:42:49.156Z,27.53
2023-04-05T07:43:51.160Z,27.65
2023-04-05T07:44:53.082Z,27.64
2023-04-05T07:46:03.507Z,27.22
2023-04-05T07:47:05.725Z,27.50
2023-04-05T07:48:07.788Z,27.48
2023-04-05T07:49:09.705Z,27.65
2023-04-05T07:50:14.922Z,27.60
2023-04-05T07:51:17.127Z,27.39
2023-04-05T07:52:19.460Z,27.27
2023-04-05T07:53:21.555Z,27.55
2023-04-05T07:54:24.956Z,27.47
2023-04-05T07:55:29.859Z,27.48
2023-04-05T07:56:32.478Z,27.46
2023-04-05T07:57:34.383Z,27.29
2023-04-05T07:58:41.326Z,27.67
2023-04-05T07:59:43.347Z,27.61
2023-04-05T08:00:46.231Z,27.87
2023-04-05T08:01:49.565Z,27.11
2023-04-05T08:02:51.811Z,27.16
2023-04-05T08:03:57.768Z,27.18
2023-04-05T08:04:59.717Z,27.49
2023-04-05T08:06:15.146Z,27.51
2023-04-05T08:07:17.143Z,27.26
2023-04-05T08:08:19.148Z,27.53
2023-04-05T08:09:21.291Z,27.29
2023-04-05T08:10:23.133Z,27.29
2023-04-05T08:11:26.465Z,27.24
2023-04-05T08:12:32.169Z,27.23
2023-04-05T08:13:34.479Z,27.20
2023-04-05T08:14:36.306Z,27.50
2023-04-05T08:15:38.226Z,27.40
2023-04-05T08:16:40.403Z,27.23
2023-04-05T08:17:43.663Z,27.29
2023-04-05T08:18:45.862Z,27.14
2023-04-05T08:19:47.705Z,27.17
2023-04-05T08:20:55.234Z,27.22
2023-04-05T08:21:57.263Z,27.39
2023-04-05T08:22:59.077Z,27.22
2023-04-05T08:24:01.090Z,27.30
2023-04-05T08:25:05.308Z,27.21
2023-04-05T08:26:07.895Z,27.30
2023-04-05T08:27:09.836Z,27.16
2023-04-05T08:28:12.860Z,27.45
2023-04-05T08:29:17.216Z,27.38
2023-04-05T08:30:19.977Z,27.07
2023-04-05T08:31:22.317Z,27.26
2023-04-05T08:32:24.271Z,27.12
2023-04-05T08:33:26.566Z,27.35
2023-04-05T08:34:28.440Z,27.06
2023-04-05T08:35:31.149Z,27.29
2023-04-05T08:36:32.991Z,27.15
2023-04-05T08:37:35.984Z,27.04
2023-04-05T08:38:38.011Z,27.33
2023-04-05T08:39:40.022Z,27.07
2023-04-05T08:40:48.094Z,27.08
2023-04-05T08:42:17.446Z,27.11
2023-04-05T08:43:40.631Z,27.12
2023-04-05T08:44:45.802Z,26.90
2023-04-05T08:45:51.378Z,27.03
2023-04-05T08:46:56.371Z,27.06
2023-04-05T08:47:59.021Z,27.36
2023-04-05T08:49:11.132Z,27.16
2023-04-05T08:50:13.707Z,27.15
2023-04-05T08:51:23.934Z,27.08
2023-04-05T08:52:26.296Z,26.93
2023-04-05T08:53:28.501Z,27.16
2023-04-05T08:54:30.714Z,27.17
2023-04-05T08:55:33.020Z,27.00
2023-04-05T08:56:36.683Z,27.29
2023-04-05T08:57:44.357Z,26.73
2023-04-05T08:58:57.814Z,27.19
2023-04-05T09:00:01.722Z,27.17
2023-04-05T09:01:07.604Z,27.07
2023-04-05T09:02:18.841Z,27.11
2023-04-05T09:03:31.626Z,27.45
2023-04-05T09:04:44.953Z,26.91
2023-04-05T09:05:51.406Z,27.18
2023-04-05T09:06:59.381Z,26.99
2023-04-05T09:08:02.330Z,27.24
2023-04-05T09:09:08.513Z,27.20
2023-04-05T09:10:13.634Z,27.18
2023-04-05T09:11:17.105Z,27.22
2023-04-05T09:12:22.701Z,27.16
2023-04-05T09:13:24.572Z,27.28
2023-04-05T09:14:29.080Z,27.13
2023-04-05T09:15:35.493Z,27.53
2023-04-05T09:16:42.842Z,27.60
2023-04-05T09:17:47.392Z,27.21
2023-04-05T09:18:49.678Z,27.39
2023-04-05T09:19:51.576Z,27.30
2023-04-05T09:21:03.766Z,27.29
2023-04-05T09:22:08.106Z,27.10
2023-04-05T09:23:10.997Z,27.27
2023-04-05T09:24:13.907Z,27.27
2023-04-05T09:25:54.709Z,27.09
2023-04-05T09:27:15.560Z,26.94
2023-04-05T09:28:19.569Z,27.11
2023-04-05T09:29:31.224Z,27.28
2023-04-05T09:30:35.866Z,27.29
2023-04-05T09:31:38.822Z,27.04
2023-04-05T09:32:47.244Z,27.00
2023-04-05T09:33:49.460Z,27.61
2023-04-05T09:34:54.422Z,27.24
2023-04-05T09:35:56.614Z,27.23
2023-04-05T09:36:59.705Z,27.69
2023-04-05T09:38:05.088Z,27.42
2023-04-05T09:39:09.305Z,27.42
2023-04-05T09:40:14.518Z,27.15
2023-04-05T09:41:16.631Z,27.34
2023-04-05T09:42:23.238Z,27.14
2023-04-05T09:43:42.463Z,27.27
2023-04-05T09:45:02.820Z,27.79
2023-04-05T09:46:05.336Z,27.71
2023-04-05T09:47:18.366Z,27.69
2023-04-05T09:48:20.386Z,27.36
2023-04-05T09:49:34.638Z,27.16
2023-04-05T09:50:37.301Z,27.25
2023-04-05T09:51:39.492Z,27.55
2023-04-05T09:52:42.520Z,27.35
2023-04-05T09:54:04.803Z,27.38
2023-04-05T09:55:07.598Z,27.21
2023-04-05T09:56:13.707Z,27.32
2023-04-05T09:57:18.049Z,27.24
2023-04-05T09:58:21.943Z,27.14
2023-04-05T09:59:23.923Z,27.15
2023-04-05T10:00:26.231Z,27.92
2023-04-05T10:01:32.233Z,28.01
2023-04-05T10:02:39.708Z,27.71
2023-04-05T10:03:49.637Z,28.01
2023-04-05T10:04:52.676Z,28.16
2023-04-05T10:05:57.911Z,27.92
2023-04-05T10:07:00.245Z,27.88
2023-04-05T10:08:02.695Z,27.76
2023-04-05T10:09:06.639Z,27.79
2023-04-05T10:10:16.424Z,27.52
2023-04-05T10:11:23.570Z,27.88
2023-04-05T10:12:27.527Z,27.96
2023-04-05T10:13:30.485Z,27.98
2023-04-05T10:14:32.333Z,27.71
2023-04-05T10:15:35.816Z,27.60
2023-04-05T10:16:47.842Z,27.65
2023-04-05T10:18:00.959Z,27.57
2023-04-05T10:19:10.297Z,27.62
2023-04-05T10:20:21.648Z,27.69
2023-04-05T10:21:29.987Z,27.54
2023-04-05T10:23:30.642Z,27.68
2023-04-05T10:24:52.016Z,27.76
2023-04-05T10:25:54.107Z,27.19
2023-04-05T10:27:29.231Z,26.78
2023-04-05T10:28:36.573Z,26.24
2023-04-05T10:30:05.033Z,25.97
2023-04-05T10:31:37.121Z,25.90
2023-04-05T10:33:14.855Z,25.91
2023-04-05T10:34:43.295Z,25.77
2023-04-05T10:36:32.005Z,25.84
2023-04-05T10:38:19.352Z,25.64
2023-04-05T10:39:44.749Z,25.87
2023-04-05T10:40:53.832Z,26.00
2023-04-05T10:42:13.985Z,25.63
2023-04-05T10:43:23.202Z,25.15
2023-04-05T10:44:26.618Z,25.12
2023-04-05T10:45:29.550Z,24.63
2023-04-05T10:46:35.335Z,24.76
2023-04-05T10:47:45.476Z,24.12
2023-04-05T10:49:04.473Z,23.77
2023-04-05T10:50:14.515Z,23.76
2023-04-05T10:51:16.785Z,23.59
2023-04-05T10:52:19.586Z,23.65
2023-04-05T10:53:23.437Z,23.58
2023-04-05T10:54:26.132Z,23.76
2023-04-05T10:55:29.177Z,23.64
2023-04-05T10:56:32.335Z,23.36
2023-04-05T10:57:35.515Z,22.95
2023-04-05T10:58:40.562Z,22.98
2023-04-05T10:59:46.417Z,22.22
2023-04-05T11:00:50.957Z,22.11
2023-04-05T11:01:55.099Z,21.94
2023-04-05T11:02:58.680Z,22.07
2023-04-05T11:04:12.847Z,21.98
2023-04-05T11:05:35.636Z,22.24
2023-04-05T11:06:37.558Z,22.56
2023-04-05T11:07:50.159Z,22.85
2023-04-05T11:09:09.101Z,23.04
2023-04-05T11:10:19.135Z,23.31
2023-04-05T11:11:24.538Z,23.15
2023-04-05T11:12:54.744Z,23.21
2023-04-05T11:13:58.816Z,23.33
2023-04-05T11:15:27.371Z,23.31
2023-04-05T11:16:40.320Z,23.74
2023-04-05T11:17:42.304Z,23.80
2023-04-05T11:18:52.398Z,24.29
2023-04-05T11:20:05.884Z,24.25
2023-04-05T11:21:08.788Z,24.26
2023-04-05T11:22:13.061Z,24.44
2023-04-05T11:23:19.049Z,24.40
2023-04-05T11:24:21.037Z,25.31
2023-04-05T11:25:24.859Z,24.86
2023-04-05T11:26:41.284Z,24.49
2023-04-05T11:28:01.580Z,23.96
2023-04-05T11:29:03.611Z,24.50
2023-04-05T11:30:07.677Z,24.58
2023-04-05T11:31:15.479Z,24.47
2023-04-05T11:32:18.596Z,24.62
2023-04-05T11:34:10.355Z,24.51
2023-04-05T11:35:23.391Z,24.81
2023-04-05T11:36:44.428Z,24.77
2023-04-05T11:38:01.173Z,24.99
2023-04-05T11:39:23.871Z,24.91
2023-04-05T11:40:38.279Z,25.27
2023-04-05T11:41:40.401Z,25.30
2023-04-05T11:42:42.869Z,25.55
2023-04-05T11:43:47.457Z,25.31
2023-04-05T11:44:52.753Z,25.45
2023-04-05T11:45:54.882Z,25.42
2023-04-05T11:46:57.304Z,25.66
2023-04-05T11:48:08.084Z,25.42
2023-04-05T11:49:10.159Z,25.47
2023-04-05T11:50:13.475Z,25.10
2023-04-05T11:51:16.748Z,24.91
2023-04-05T11:52:22.874Z,24.95
2023-04-05T11:53:25.403Z,24.68
2023-04-05T11:54:33.962Z,24.53
2023-04-05T11:55:37.415Z,24.36
2023-04-05T11:56:39.235Z,24.22
2023-04-05T11:57:41.525Z,24.36
2023-04-05T11:58:43.481Z,24.60
2023-04-05T11:59:45.562Z,24.55
2023-04-05T12:01:07.786Z,24.68
2023-04-05T12:02:10.055Z,24.57
2023-04-05T12:03:18.252Z,24.49
2023-04-05T12:04:20.129Z,24.40
2023-04-05T12:05:23.522Z,24.52
2023-04-05T12:06:26.688Z,24.62
2023-04-05T12:07:32.600Z,24.80
2023-04-05T12:08:42.577Z,25.07
2023-04-05T12:10:16.102Z,24.91
2023-04-05T12:11:25.092Z,25.06
2023-04-05T12:12:26.995Z,25.02
2023-04-05T12:13:33.724Z,25.12
2023-04-05T12:14:35.732Z,25.17
2023-04-05T12:15:41.119Z,25.45
2023-04-05T12:16:50.285Z,25.36
2023-04-05T12:17:55.298Z,25.30
2023-04-05T12:19:00.147Z,25.25
2023-04-05T12:20:02.367Z,25.09
2023-04-05T12:21:08.172Z,25.38
2023-04-05T12:22:10.678Z,25.20
2023-04-05T12:23:13.119Z,25.16
2023-04-05T12:24:15.342Z,25.11
2023-04-05T12:25:18.789Z,24.94
2023-04-05T12:26:22.246Z,24.79
2023-04-05T12:27:25.281Z,24.66
2023-04-05T12:28:56.585Z,24.31
2023-04-05T12:30:27.868Z,23.94
2023-04-05T12:31:45.701Z,24.13
2023-04-05T12:32:53.582Z,24.55
2023-04-05T12:33:59.770Z,24.67
2023-04-05T12:35:01.613Z,24.78
2023-04-05T12:36:08.926Z,24.78
2023-04-05T12:37:11.301Z,24.94
2023-04-05T12:38:16.200Z,25.07
2023-04-05T12:39:18.532Z,25.12
2023-04-05T12:40:22.997Z,25.36
2023-04-05T12:41:32.115Z,25.26
2023-04-05T12:42:36.129Z,25.32
2023-04-05T12:43:42.646Z,25.30
2023-04-05T12:44:44.573Z,25.17
2023-04-05T12:45:50.618Z,25.58
2023-04-05T12:47:05.323Z,25.41
2023-04-05T12:48:15.165Z,25.36
2023-04-05T12:49:19.004Z,25.25
2023-04-05T12:50:30.521Z,25.08
2023-04-05T12:51:33.434Z,25.15
2023-04-05T12:52:35.493Z,24.94
2023-04-05T12:53:47.611Z,25.11
2023-04-05T12:54:55.763Z,25.02
2023-04-05T12:55:58.818Z,24.63
2023-04-05T12:57:04.660Z,24.56
2023-04-05T12:58:08.349Z,24.61
2023-04-05T12:59:11.004Z,24.58
2023-04-05T13:00:13.927Z,24.35
2023-04-05T13:01:15.722Z,24.31
2023-04-05T13:02:18.601Z,24.19
2023-04-05T13:03:21.729Z,24.12
2023-04-05T13:04:25.794Z,23.95
2023-04-05T13:05:30.323Z,23.86
2023-04-05T13:06:32.927Z,23.42
2023-04-05T13:07:35.182Z,23.10
2023-04-05T13:08:37.129Z,22.88
2023-04-05T13:09:38.974Z,22.47
2023-04-05T13:10:41.336Z,21.93
2023-04-05T13:11:43.305Z,22.22
2023-04-05T13:12:46.004Z,22.32
2023-04-05T13:13:47.803Z,22.29
2023-04-05T13:14:50.326Z,22.20
2023-04-05T13:15:52.595Z,22.15
2023-04-05T13:16:54.522Z,22.34
2023-04-05T13:17:56.521Z,22.28
2023-04-05T13:18:58.364Z,22.50
2023-04-05T13:20:00.298Z,22.43
2023-04-05T13:21:07.899Z,22.89
2023-04-05T13:22:09.918Z,22.75
2023-04-05T13:23:12.986Z,22.69
2023-04-05T13:24:14.981Z,22.57
2023-04-05T13:25:17.468Z,22.41
2023-04-05T13:26:19.331Z,22.44
2023-04-05T13:27:24.389Z,22.36
2023-04-05T13:28:27.566Z,22.36
2023-04-05T13:29:29.382Z,22.38
2023-04-05T13:30:32.176Z,22.48
2023-04-05T13:31:34.147Z,22.48
2023-04-05T13:32:36.954Z,22.20
2023-04-05T13:33:38.827Z,22.04
2023-04-05T13:34:40.713Z,21.96
2023-04-05T13:35:42.940Z,22.02
2023-04-05T13:36:45.092Z,21.89
2023-04-05T13:37:46.996Z,21.97
2023-04-05T13:38:48.925Z,22.07
2023-04-05T13:39:51.066Z,22.31
2023-04-05T13:40:54.022Z,22.43
2023-04-05T13:41:57.396Z,22.07
2023-04-05T13:42:59.399Z,22.11
2023-04-05T13:44:02.873Z,22.30
2023-04-05T13:45:06.797Z,22.29
2023-04-05T13:46:08.937Z,22.45
2023-04-05T13:47:11.054Z,22.50
2023-04-05T13:48:13.003Z,22.54
2023-04-05T13:49:15.743Z,22.71
2023-04-05T13:50:17.736Z,22.89
2023-04-05T13:51:19.904Z,23.05
2023-04-05T13:52:22.278Z,22.99
2023-04-05T13:53:24.937Z,23.10
2023-04-05T13:54:27.881Z,23.15
2023-04-05T13:55:29.718Z,23.26
2023-04-05T13:56:31.587Z,23.11
2023-04-05T13:57:35.013Z,23.21
2023-04-05T13:58:36.885Z,23.46
2023-04-05T13:59:38.744Z,23.19